createdAt,value
2023-02-27T00:00:00.440Z,5.03
2023-02-27T00:04:03.083Z,4.99
2023-02-27T00:08:05.541Z,4.94
2023-02-27T00:12:08.886Z,4.96
2023-02-27T00:16:12.868Z,4.95
2023-02-27T00:20:18.208Z,4.91
2023-02-27T00:24:22.547Z,4.85
2023-02-27T00:28:24.938Z,4.79
2023-02-27T00:32:27.434Z,4.84
2023-02-27T00:36:29.619Z,4.85
2023-02-27T00:40:36.114Z,4.74
2023-02-27T00:44:38.701Z,4.70
2023-02-27T00:48:42.070Z,4.63
2023-02-27T00:52:44.192Z,4.59
2023-02-27T00:56:46.908Z,4.65
2023-02-27T01:00:49.119Z,4.65
2023-02-27T01:04:51.473Z,4.69
2023-02-27T01:08:54.067Z,4.79
2023-02-27T01:12:56.349Z,4.84
2023-02-27T01:16:59.148Z,4.88
2023-02-27T01:21:02.544Z,4.94
2023-02-27T01:25:05.649Z,4.92
2023-02-27T01:29:07.855Z,4.98
2023-02-27T01:33:10.274Z,4.99
2023-02-27T01:37:15.215Z,5.03
2023-02-27T01:41:18.258Z,5.02
2023-02-27T01:45:28.093Z,4.95
2023-02-27T01:49:34.826Z,4.91
2023-02-27T01:53:41.129Z,4.89
2023-02-27T01:57:46.504Z,4.80
2023-02-27T02:01:51.367Z,4.74
2023-02-27T02:06:01.597Z,4.73
2023-02-27T02:10:08.166Z,4.60
2023-02-27T02:14:11.108Z,4.60
2023-02-27T02:18:22.005Z,4.55
2023-02-27T02:22:42.848Z,4.51
2023-02-27T02:27:01.316Z,4.41
2023-02-27T02:31:37.701Z,4.42
2023-02-27T02:36:03.947Z,4.38
2023-02-27T02:40:17.829Z,4.32
2023-02-27T02:44:38.256Z,4.26
2023-02-27T02:48:56.595Z,4.19
2023-02-27T02:53:36.043Z,4.14
2023-02-27T02:58:12.779Z,4.05
2023-02-27T03:02:20.340Z,4.01
2023-02-27T03:06:29.648Z,4.00
2023-02-27T03:10:57.865Z,3.92
2023-02-27T03:15:11.454Z,3.91
2023-02-27T03:19:19.162Z,3.88
2023-02-27T03:23:28.339Z,3.93
2023-02-27T03:27:38.655Z,3.91
2023-02-27T03:31:56.889Z,3.84
2023-02-27T03:36:32.562Z,3.80
2023-02-27T03:40:40.979Z,3.77
2023-02-27T03:44:58.184Z,3.80
2023-02-27T03:49:00.351Z,3.81
2023-02-27T03:53:06.709Z,3.70
2023-02-27T03:57:09.219Z,3.62
2023-02-27T04:01:11.990Z,3.47
2023-02-27T04:05:14.448Z,3.41
2023-02-27T04:09:41.818Z,3.36
2023-02-27T04:13:55.944Z,3.30
2023-02-27T04:18:04.414Z,3.19
2023-02-27T04:22:28.229Z,3.20
2023-02-27T04:26:39.659Z,3.22
2023-02-27T04:31:19.437Z,3.26
2023-02-27T04:35:29.509Z,3.28
2023-02-27T04:39:38.757Z,3.41
2023-02-27T04:43:44.199Z,3.43
2023-02-27T04:48:21.487Z,3.40
2023-02-27T04:52:39.451Z,3.47
2023-02-27T04:56:47.607Z,3.54
2023-02-27T05:00:58.254Z,3.61
2023-02-27T05:05:04.342Z,3.60
2023-02-27T05:09:20.553Z,3.66
2023-02-27T05:13:31.059Z,3.74
2023-02-27T05:17:47.422Z,3.77
2023-02-27T05:22:15.745Z,3.79
2023-02-27T05:26:25.175Z,3.88
2023-02-27T05:30:32.040Z,3.90
2023-02-27T05:34:52.753Z,3.90
2023-02-27T05:39:00.079Z,3.91
2023-02-27T05:43:28.474Z,3.88
2023-02-27T05:47:32.645Z,3.87
2023-02-27T05:51:39.388Z,3.86
2023-02-27T05:55:47.532Z,3.87
2023-02-27T06:00:19.028Z,3.88
2023-02-27T06:04:22.011Z,3.86
2023-02-27T06:08:24.632Z,3.95
2023-02-27T06:12:26.867Z,4.01
2023-02-27T06:16:30.482Z,4.08
2023-02-27T06:20:34.459Z,4.23
2023-02-27T06:24:37.114Z,4.21
2023-02-27T06:28:39.711Z,4.27
2023-02-27T06:32:41.837Z,4.34
2023-02-27T06:36:44.145Z,4.40
2023-02-27T06:40:46.351Z,4.52
2023-02-27T06:44:48.394Z,4.46
2023-02-27T06:48:50.485Z,4.53
2023-02-27T06:52:52.630Z,4.61
2023-02-27T06:56:54.760Z,4.85
2023-02-27T07:01:00.012Z,4.82
2023-02-27T07:05:07.947Z,5.04
2023-02-27T07:09:10.533Z,5.21
2023-02-27T07:13:19.370Z,5.05
2023-02-27T07:17:22.622Z,5.18
2023-02-27T07:21:25.138Z,5.24
2023-02-27T07:25:27.367Z,5.21
2023-02-27T07:29:29.436Z,5.34
2023-02-27T07:33:54.788Z,5.29
2023-02-27T07:37:58.713Z,5.33
2023-02-27T07:42:03.479Z,5.39
2023-02-27T07:46:05.730Z,5.41
2023-02-27T07:50:08.972Z,5.42
2023-02-27T07:54:11.060Z,5.60
2023-02-27T07:58:13.328Z,5.67
2023-02-27T08:02:15.707Z,5.75
2023-02-27T08:06:17.779Z,5.78
2023-02-27T08:10:20.771Z,5.85
2023-02-27T08:14:23.165Z,5.82
2023-02-27T08:18:25.774Z,5.80
2023-02-27T08:22:28.109Z,5.75
2023-02-27T08:26:31.411Z,5.66
2023-02-27T08:30:33.555Z,5.73
2023-02-27T08:34:37.929Z,5.73
2023-02-27T08:38:40.011Z,5.78
2023-02-27T08:42:42.249Z,5.87
2023-02-27T08:46:44.880Z,5.97
2023-02-27T08:50:47.763Z,6.21
2023-02-27T08:54:49.843Z,6.32
2023-02-27T08:58:52.063Z,6.50
2023-02-27T09:02:54.157Z,6.48
2023-02-27T09:06:57.770Z,6.49
2023-02-27T09:10:59.880Z,6.29
2023-02-27T09:15:01.973Z,6.36
2023-02-27T09:19:04.718Z,6.47
2023-02-27T09:23:07.786Z,6.57
2023-02-27T09:27:09.873Z,6.72
2023-02-27T09:31:12.932Z,6.79
2023-02-27T09:35:22.732Z,7.01
2023-02-27T09:39:24.792Z,7.08
2023-02-27T09:43:50.836Z,6.88
2023-02-27T09:48:30.715Z,6.86
2023-02-27T09:52:35.499Z,7.17
2023-02-27T09:57:00.848Z,7.13
2023-02-27T10:01:14.348Z,7.04
2023-02-27T10:05:25.384Z,7.16
2023-02-27T10:09:39.492Z,7.29
2023-02-27T10:14:00.103Z,7.22
2023-02-27T10:18:23.967Z,7.56
2023-02-27T10:22:36.395Z,7.63
2023-02-27T10:26:42.807Z,7.97
2023-02-27T10:30:49.281Z,7.93
2023-02-27T10:35:11.340Z,7.78
2023-02-27T10:39:17.493Z,7.70
2023-02-27T10:43:21.266Z,7.53
2023-02-27T10:47:26.045Z,7.56
2023-02-27T10:51:30.425Z,7.54
2023-02-27T10:55:38.403Z,7.20
2023-02-27T10:59:41.984Z,7.48
2023-02-27T11:03:44.813Z,7.59
2023-02-27T11:07:48.067Z,7.73
2023-02-27T11:11:51.538Z,7.63
2023-02-27T11:16:18.546Z,7.50
2023-02-27T11:20:36.257Z,7.40
2023-02-27T11:24:38.441Z,7.73
2023-02-27T11:28:42.484Z,7.63
2023-02-27T11:32:48.208Z,7.28
2023-02-27T11:37:04.446Z,7.14
2023-02-27T11:41:09.464Z,7.31
2023-02-27T11:46:04.305Z,7.28
2023-02-27T11:50:32.305Z,7.76
2023-02-27T11:54:58.678Z,7.70
2023-02-27T11:59:25.206Z,7.57
2023-02-27T12:03:37.334Z,7.88
2023-02-27T12:08:42.894Z,8.04
2023-02-27T12:13:03.255Z,8.14
2023-02-27T12:17:24.022Z,8.59
2023-02-27T12:21:46.947Z,8.64
2023-02-27T12:26:14.009Z,8.19
2023-02-27T12:30:22.609Z,8.19
2023-02-27T12:34:41.041Z,8.48
2023-02-27T12:38:43.383Z,8.75
2023-02-27T12:42:54.494Z,8.65
2023-02-27T12:47:27.502Z,8.42
2023-02-27T12:51:48.697Z,8.52
2023-02-27T12:56:23.400Z,8.32
2023-02-27T13:00:30.266Z,8.51
2023-02-27T13:04:46.346Z,8.25
2023-02-27T13:08:57.362Z,8.10
2023-02-27T13:13:34.942Z,7.97
2023-02-27T13:17:48.587Z,7.82
2023-02-27T13:21:52.705Z,7.91
2023-02-27T13:25:58.250Z,8.25
2023-02-27T13:30:03.544Z,7.94
2023-02-27T13:34:23.491Z,7.82
2023-02-27T13:38:46.246Z,7.97
2023-02-27T13:42:48.240Z,8.24
2023-02-27T13:46:50.432Z,8.14
2023-02-27T13:50:53.077Z,7.57
2023-02-27T13:54:59.854Z,7.68
2023-02-27T13:59:20.296Z,7.75
2023-02-27T14:03:26.243Z,8.03
2023-02-27T14:07:32.231Z,7.67
2023-02-27T14:11:39.997Z,7.37
2023-02-27T14:15:51.789Z,7.46
2023-02-27T14:19:57.308Z,7.57
2023-02-27T14:23:59.742Z,7.29
2023-02-27T14:28:02.909Z,7.14
2023-02-27T14:32:09.468Z,7.16
2023-02-27T14:36:23.693Z,7.24
2023-02-27T14:40:48.387Z,6.98
2023-02-27T14:44:51.687Z,7.09
2023-02-27T14:48:56.322Z,7.04
2023-02-27T14:52:58.409Z,7.13
2023-02-27T14:57:04.442Z,7.12
2023-02-27T15:01:10.127Z,7.26
2023-02-27T15:05:16.758Z,7.18
2023-02-27T15:09:25.711Z,6.83
2023-02-27T15:13:32.162Z,6.90
2023-02-27T15:17:42.857Z,6.98
2023-02-27T15:21:50.349Z,6.81
2023-02-27T15:25:57.620Z,6.68
2023-02-27T15:30:00.669Z,6.69
2023-02-27T15:34:04.004Z,6.71
2023-02-27T15:38:07.737Z,6.60
2023-02-27T15:42:10.721Z,6.35
2023-02-27T15:46:12.829Z,6.22
2023-02-27T15:50:17.905Z,6.08
2023-02-27T15:54:22.956Z,6.15
2023-02-27T15:58:26.794Z,6.00
2023-02-27T16:02:33.928Z,5.98
2023-02-27T16:06:39.205Z,5.92
2023-02-27T16:10:43.710Z,5.81
2023-02-27T16:14:46.037Z,5.74
2023-02-27T16:18:51.253Z,5.70
2023-02-27T16:23:15.469Z,5.74
2023-02-27T16:27:24.907Z,5.76
2023-02-27T16:31:31.725Z,5.77
2023-02-27T16:35:35.471Z,5.80
2023-02-27T16:39:37.634Z,5.66
2023-02-27T16:43:40.095Z,5.54
2023-02-27T16:47:42.529Z,5.40
2023-02-27T16:51:44.683Z,5.24
2023-02-27T16:55:46.922Z,5.22
2023-02-27T16:59:49.032Z,5.15
2023-02-27T17:03:51.079Z,5.10
2023-02-27T17:07:53.224Z,5.05
2023-02-27T17:11:56.438Z,4.89
2023-02-27T17:15:59.831Z,5.03
2023-02-27T17:20:06.720Z,4.98
2023-02-27T17:24:09.363Z,5.02
2023-02-27T17:28:12.077Z,5.03
2023-02-27T17:32:14.224Z,5.03
2023-02-27T17:36:17.124Z,5.12
2023-02-27T17:40:19.186Z,5.11
2023-02-27T17:44:21.560Z,5.12
2023-02-27T17:48:24.256Z,5.11
2023-02-27T17:52:27.625Z,5.11
2023-02-27T17:56:30.489Z,5.00
2023-02-27T18:00:32.811Z,5.10
2023-02-27T18:04:35.668Z,5.06
2023-02-27T18:08:37.751Z,5.03
2023-02-27T18:12:40.282Z,5.06
2023-02-27T18:16:42.710Z,4.93
2023-02-27T18:20:45.363Z,4.89
2023-02-27T18:24:48.149Z,4.75
2023-02-27T18:28:52.967Z,4.71
2023-02-27T18:32:58.702Z,4.70
2023-02-27T18:37:00.795Z,4.63
2023-02-27T18:41:06.067Z,4.63
2023-02-27T18:45:09.478Z,4.63
2023-02-27T18:49:11.731Z,4.61
2023-02-27T18:53:13.817Z,4.56
2023-02-27T18:57:16.400Z,4.60
2023-02-27T19:01:30.735Z,4.52
2023-02-27T19:05:32.836Z,4.46
2023-02-27T19:09:35.192Z,4.47
2023-02-27T19:13:37.254Z,4.47
2023-02-27T19:17:39.798Z,4.42
2023-02-27T19:21:42.164Z,4.46
2023-02-27T19:25:46.049Z,4.33
2023-02-27T19:29:48.112Z,4.31
2023-02-27T19:33:50.927Z,4.31
2023-02-27T19:37:58.242Z,4.31
2023-02-27T19:42:00.480Z,4.39
2023-02-27T19:46:08.798Z,4.40
2023-02-27T19:50:11.707Z,4.31
2023-02-27T19:54:15.790Z,4.33
2023-02-27T19:58:17.869Z,4.37
2023-02-27T20:02:20.266Z,4.29
2023-02-27T20:06:24.559Z,4.33
2023-02-27T20:10:26.702Z,4.31
2023-02-27T20:14:29.342Z,4.34
2023-02-27T20:19:05.819Z,4.27
2023-02-27T20:23:06.054Z,4.22
2023-02-27T20:27:08.561Z,4.14
2023-02-27T20:31:12.914Z,4.17
2023-02-27T20:35:15.596Z,4.19
2023-02-27T20:39:18.418Z,4.17
2023-02-27T20:43:20.623Z,4.15
2023-02-27T20:47:23.001Z,4.12
2023-02-27T20:51:26.473Z,4.11
2023-02-27T20:55:29.218Z,4.03
2023-02-27T20:59:31.709Z,4.08
2023-02-27T21:03:38.529Z,4.07
2023-02-27T21:07:41.106Z,4.03
2023-02-27T21:11:43.276Z,4.08
2023-02-27T21:15:46.208Z,4.10
2023-02-27T21:19:48.627Z,4.14
2023-02-27T21:23:52.185Z,4.15
2023-02-27T21:28:02.211Z,4.04
2023-02-27T21:32:04.703Z,3.99
2023-02-27T21:36:07.527Z,4.05
2023-02-27T21:40:10.892Z,4.08
2023-02-27T21:44:15.090Z,4.10
2023-02-27T21:48:18.222Z,4.07
2023-02-27T21:52:20.372Z,4.06
2023-02-27T21:56:22.550Z,4.01
2023-02-27T22:00:27.599Z,4.02
2023-02-27T22:04:29.766Z,4.07
2023-02-27T22:08:31.795Z,4.22
2023-02-27T22:12:33.995Z,4.31
2023-02-27T22:16:36.278Z,4.30
2023-02-27T22:20:39.609Z,4.41
2023-02-27T22:24:42.395Z,4.47
2023-02-27T22:28:44.653Z,4.48
2023-02-27T22:32:46.772Z,4.49
2023-02-27T22:36:52.456Z,4.40
2023-02-27T22:40:54.971Z,4.42
2023-02-27T22:44:57.131Z,4.40
2023-02-27T22:49:01.351Z,4.31
2023-02-27T22:53:03.421Z,4.31
2023-02-27T22:57:05.967Z,4.27
2023-02-27T23:01:16.894Z,4.22
2023-02-27T23:05:19.020Z,4.18
2023-02-27T23:09:24.575Z,4.13
2023-02-27T23:13:26.910Z,4.16
2023-02-27T23:17:29.182Z,4.17
2023-02-27T23:21:37.008Z,4.18
2023-02-27T23:25:39.326Z,4.22
2023-02-27T23:29:41.604Z,4.25
2023-02-27T23:33:43.802Z,4.20
2023-02-27T23:37:45.971Z,4.22
2023-02-27T23:41:48.116Z,4.17
2023-02-27T23:45:50.344Z,4.17
2023-02-27T23:49:52.465Z,4.21
2023-02-27T23:53:54.587Z,4.23
2023-02-27T23:57:58.627Z,4.22
